Weather reports worldwide

Advertisment
Leuchtturm Alte Weser, Germany (10124): temperature & dewpoint: 01.07.2020 21:00:00 - 07.07.2020 21:00:00 (CEST)Leuchtturm Alte Weser, Germany (10124): wind speed & gusts: 01.07.2020 21:00:00 - 07.07.2020 21:00:00 (CEST)Leuchtturm Alte Weser, Germany (10124): wind direction: 01.07.2020 21:00:00 - 07.07.2020 21:00:00 (CEST)Leuchtturm Alte Weser, Germany (10124): reduced air pressure: 01.07.2020 21:00:00 - 07.07.2020 21:00:00 (CEST)Leuchtturm Alte Weser, Germany (10124): sunshine duration: 01.07.2020 21:00:00 - 07.07.2020 21:00:00 (CEST)
Date & Time tt [°C] td [°C] ff [km/h] ff [kn] fx [km/h] fx [kn] dd ppp [hPa] sd [min]
07.07.2020 21:00:00 13,6 10,1 36 19 50 27 W 1015,2 0
07.07.2020 20:00:00 14,0 10,1 36 19 - - W 1015,5 0
07.07.2020 19:00:00 14,4 8,9 36 19 47 25 WNW 1015,7 0
07.07.2020 18:00:00 13,2 10,0 25 14 61 33 WNW 1016,3 0
07.07.2020 17:00:00 13,3 10,4 47 25 - - W 1016,0 0
07.07.2020 16:00:00 14,5 8,4 50 27 61 33 W 1015,6 6
07.07.2020 15:00:00 14,8 9,0 36 19 65 35 W 1015,6 0
07.07.2020 14:00:00 14,8 10,8 36 19 - - W 1016,0 0
07.07.2020 13:00:00 14,5 11,1 40 21 54 29 SSW 1015,9 0
07.07.2020 12:00:00 14,5 9,9 36 19 - - SSW 1016,4 6
07.07.2020 11:00:00 14,2 10,1 32 18 - - SW 1017,2 0
07.07.2020 10:00:00 14,1 10,1 32 18 - - SW 1017,3 12
07.07.2020 09:00:00 13,9 9,4 32 18 - - SW 1017,6 36
07.07.2020 08:00:00 14,1 8,4 25 14 - - W 1017,8 54
07.07.2020 07:00:00 14,0 8,3 32 18 - - W 1017,9 54
07.07.2020 06:00:00 13,7 8,3 32 18 - - W 1017,6 0
07.07.2020 05:00:00 13,5 9,1 32 18 - - WNW 1017,6 0
07.07.2020 04:00:00 13,3 8,9 32 18 54 29 NW 1017,7 0
07.07.2020 03:00:00 13,9 7,4 47 25 61 33 WNW 1017,7 0
07.07.2020 02:00:00 13,8 8,5 47 25 - - WNW 1017,6 0
07.07.2020 01:00:00 13,8 9,6 47 25 65 35 WNW 1017,2 0
07.07.2020 00:00:00 14,1 8,7 47 25 54 29 WNW 1016,7 0
06.07.2020 23:00:00 14,2 7,6 47 25 - - WNW 1016,4 0
06.07.2020 22:00:00 14,2 9,7 47 25 61 33 WNW 1015,8 0
06.07.2020 21:00:00 14,2 10,8 40 21 61 33 WNW 1015,3 0
06.07.2020 20:00:00 14,7 8,4 54 29 - - WNW 1014,5 0
06.07.2020 19:00:00 14,9 10,6 54 29 65 35 WNW 1013,9 36
06.07.2020 18:00:00 14,8 9,2 58 31 72 39 NW 1012,6 24
06.07.2020 17:00:00 14,7 10,9 58 31 - - WNW 1011,7 30
06.07.2020 16:00:00 14,4 11,0 65 35 76 41 WNW 1011,1 30
06.07.2020 15:00:00 15,0 9,9 61 33 68 37 W 1010,4 36
06.07.2020 14:00:00 15,1 10,1 58 31 - - W 1009,6 42
06.07.2020 13:00:00 14,4 10,1 54 29 76 41 W 1008,9 18
06.07.2020 12:00:00 14,2 10,2 50 27 76 41 W 1008,2 24
06.07.2020 11:00:00 14,5 10,6 61 33 - - W 1007,0 18
06.07.2020 10:00:00 13,8 9,8 68 37 79 43 W 1006,3 0
06.07.2020 09:00:00 13,2 10,1 65 35 86 47 W 1006,0 12
06.07.2020 08:00:00 15,0 10,4 58 31 - - W 1004,9 12
06.07.2020 07:00:00 15,0 9,7 68 37 86 47 W 1004,1 0
06.07.2020 06:00:00 14,2 10,7 61 33 79 43 WSW 1004,3 0
06.07.2020 05:00:00 13,3 10,6 36 19 - - WSW 1004,8 0
06.07.2020 04:00:00 14,5 10,7 50 27 68 37 WSW 1004,5 0
06.07.2020 03:00:00 12,7 11,1 61 33 76 41 WSW 1005,6 0
06.07.2020 02:00:00 16,0 11,0 43 23 - - SW 1004,7 0
06.07.2020 01:00:00 16,1 11,8 36 19 - - SW 1005,5 0
06.07.2020 00:00:00 16,2 12,0 32 18 47 25 SW 1006,0 0
05.07.2020 23:00:00 16,7 10,5 40 21 - - WSW 1006,3 0
05.07.2020 22:00:00 16,8 10,3 47 25 61 33 W 1006,3 0
05.07.2020 21:00:00 16,6 10,1 47 25 61 33 W 1006,4 24
05.07.2020 20:00:00 16,8 10,6 47 25 - - W 1006,3 24
05.07.2020 19:00:00 16,8 11,1 40 21 65 35 W 1006,4 30
05.07.2020 18:00:00 16,9 10,1 58 31 68 37 W 1006,2 24
05.07.2020 17:00:00 17,1 11,9 54 29 - - W 1006,2 24
05.07.2020 16:00:00 17,7 11,9 61 33 76 41 W 1005,4 12
05.07.2020 15:00:00 18,0 14,3 54 29 83 45 W 1005,0 24
05.07.2020 14:00:00 18,7 14,9 68 37 - - WSW 1004,4 12
05.07.2020 13:00:00 18,3 16,1 58 31 72 39 SW 1004,2 6
05.07.2020 12:00:00 17,6 16,6 58 31 72 39 SW 1004,0 0
05.07.2020 11:00:00 16,8 16,6 61 33 - - SW 1003,8 0
05.07.2020 10:00:00 16,7 16,6 61 33 72 39 SW 1003,4 0
05.07.2020 09:00:00 16,7 16,7 54 29 72 39 SW 1003,5 0
05.07.2020 08:00:00 17,1 16,3 58 31 - - SW 1003,2 0
05.07.2020 07:00:00 17,0 16,7 47 25 58 31 SW 1003,7 0
05.07.2020 06:00:00 16,9 16,9 47 25 54 29 SW 1004,3 0
05.07.2020 05:00:00 16,9 16,9 40 21 - - SW 1004,6 0
05.07.2020 04:00:00 17,3 17,0 47 25 58 31 SW 1005,2 0
05.07.2020 03:00:00 17,3 17,0 40 21 - - SW 1005,9 0
05.07.2020 02:00:00 17,3 17,0 36 19 - - SW 1006,6 0
05.07.2020 01:00:00 17,0 17,0 32 18 - - SW 1007,3 0
05.07.2020 00:00:00 16,9 16,9 36 19 - - SW 1007,6 0
04.07.2020 23:00:00 16,8 16,8 32 18 - - SSW 1008,1 0
04.07.2020 22:00:00 17,0 17,0 32 18 47 25 SW 1008,2 0
04.07.2020 21:00:00 16,9 16,9 47 25 54 29 WSW 1008,3 0
04.07.2020 20:00:00 17,4 16,7 43 23 - - SW 1008,6 0
04.07.2020 19:00:00 16,6 16,6 43 23 61 33 SW 1008,7 0
04.07.2020 18:00:00 16,5 16,5 50 27 65 35 SW 1008,5 0
04.07.2020 17:00:00 16,4 16,3 50 27 - - SW 1008,7 0
04.07.2020 16:00:00 16,3 16,3 50 27 61 33 SW 1008,8 0
04.07.2020 15:00:00 16,2 15,8 50 27 65 35 SW 1008,7 0
04.07.2020 14:00:00 16,0 15,6 47 25 - - SW 1008,9 0
04.07.2020 13:00:00 16,2 14,6 50 27 58 31 SW 1008,9 0
04.07.2020 12:00:00 16,2 14,0 47 25 58 31 SW 1009,0 0
04.07.2020 11:00:00 15,6 14,1 50 27 - - SW 1009,4 0
04.07.2020 10:00:00 15,0 13,7 50 27 61 33 SW 1009,5 0
04.07.2020 09:00:00 14,7 13,9 47 25 58 31 SW 1009,7 0
04.07.2020 08:00:00 14,5 14,4 50 27 - - SW 1009,9 0
04.07.2020 07:00:00 14,6 14,6 54 29 61 33 SW 1009,7 0
04.07.2020 06:00:00 14,5 14,5 50 27 61 33 SW 1010,1 0
04.07.2020 05:00:00 15,7 12,9 47 25 - - SW 1010,2 0
04.07.2020 04:00:00 15,9 12,5 50 27 58 31 SW 1010,5 0
04.07.2020 03:00:00 16,2 11,8 47 25 58 31 SW 1010,6 0
04.07.2020 02:00:00 16,6 11,9 47 25 - - SW 1011,1 0
04.07.2020 01:00:00 17,0 12,1 47 25 58 31 SW 1011,8 0
04.07.2020 00:00:00 17,3 11,4 43 23 58 31 SW 1012,2 0
03.07.2020 23:00:00 17,4 11,5 43 23 - - SW 1012,5 0
03.07.2020 22:00:00 17,3 12,0 40 21 61 33 WSW 1012,8 0
03.07.2020 21:00:00 17,3 11,6 50 27 61 33 WSW 1012,8 0
03.07.2020 20:00:00 17,3 11,8 54 29 - - WSW 1012,7 0
03.07.2020 19:00:00 17,7 13,0 54 29 65 35 W 1012,6 0
03.07.2020 18:00:00 18,5 13,6 36 19 - - WSW 1012,9 0
03.07.2020 17:00:00 18,2 13,8 25 14 - - SW 1013,2 0
03.07.2020 16:00:00 17,1 14,0 29 16 - - WSW 1013,8 0
03.07.2020 15:00:00 16,8 13,6 29 16 - - W 1013,8 0
03.07.2020 14:00:00 16,4 13,3 25 14 - - W 1014,1 24
03.07.2020 13:00:00 16,5 12,9 32 18 - - W 1014,0 60
03.07.2020 12:00:00 16,6 12,2 29 16 - - WSW 1013,9 24
03.07.2020 11:00:00 16,0 12,8 25 14 - - SW 1013,8 36
03.07.2020 10:00:00 15,2 12,6 18 10 - - SSW 1013,9 12
03.07.2020 09:00:00 14,9 12,2 14 8 - - SSW 1013,9 0
03.07.2020 08:00:00 15,1 11,1 11 6 - - SW 1013,7 0
03.07.2020 07:00:00 14,9 10,9 7 4 - - SW 1013,5 6
03.07.2020 06:00:00 14,7 11,0 0 0 - - S 1013,2 0
03.07.2020 05:00:00 14,4 11,4 4 2 - - N 1013,0 0
03.07.2020 04:00:00 14,3 11,8 14 8 - - N 1012,8 0
03.07.2020 03:00:00 14,3 11,9 7 4 - - NE 1012,7 0
03.07.2020 02:00:00 13,6 12,1 18 10 - - N 1012,5 0
03.07.2020 01:00:00 14,3 12,5 18 10 - - N 1012,1 0
03.07.2020 00:00:00 14,4 13,2 22 12 - - N 1011,6 0
02.07.2020 23:00:00 15,3 12,9 18 10 - - N 1011,5 0
02.07.2020 22:00:00 15,7 12,6 7 4 - - NNW 1010,9 6
02.07.2020 21:00:00 16,3 12,6 4 2 - - ENE 1010,4 6
02.07.2020 20:00:00 16,6 12,8 4 2 - - ENE 1010,3 42
02.07.2020 19:00:00 15,9 12,7 7 4 - - N 1009,9 42
02.07.2020 18:00:00 15,5 12,7 11 6 - - N 1009,8 6
02.07.2020 17:00:00 15,2 13,5 7 4 - - N 1009,7 0
02.07.2020 16:00:00 14,8 13,7 4 2 - - N 1009,7 0
02.07.2020 15:00:00 15,5 12,9 7 4 - - NNE 1009,5 6
02.07.2020 14:00:00 15,6 12,8 7 4 - - NNE 1009,3 24
02.07.2020 13:00:00 15,5 12,9 7 4 - - NNE 1009,2 60
02.07.2020 12:00:00 15,0 13,1 14 8 - - N 1008,8 36
02.07.2020 11:00:00 15,2 13,1 11 6 - - NNW 1008,5 18
02.07.2020 10:00:00 15,5 12,7 11 6 - - WNW 1008,1 6
02.07.2020 09:00:00 15,3 13,0 14 8 - - WNW 1007,6 42
02.07.2020 08:00:00 15,4 12,8 14 8 - - WNW 1007,3 12
02.07.2020 07:00:00 15,6 13,4 14 8 - - WNW 1006,9 6
02.07.2020 06:00:00 15,4 13,3 14 8 - - WNW 1006,6 0
02.07.2020 05:00:00 15,3 13,2 18 10 - - WNW 1006,4 0
02.07.2020 04:00:00 15,2 14,0 22 12 - - WNW 1006,1 0
02.07.2020 03:00:00 15,8 14,1 25 14 - - W 1006,0 0
02.07.2020 02:00:00 16,3 13,8 36 19 - - W 1005,6 0
02.07.2020 01:00:00 16,2 14,5 40 21 54 29 W 1005,4 0
02.07.2020 00:00:00 16,8 13,9 47 25 58 31 W 1004,9 0
01.07.2020 23:00:00 16,8 14,2 40 21 - - W 1004,8 0
01.07.2020 22:00:00 16,2 14,5 32 18 50 27 W 1004,6 0
01.07.2020 21:00:00 15,6 14,5 43 23 50 27 W 1004,2 0

tt = temperature
td = dewpoint
ff = wind speed
fx = gusts
dd = wind direction
ppp = reduced air pressure
sd = sunshine duration

Next stations